sensor_id;sensor_type;location;lat;lon;timestamp;P1;durP1;ratioP1;P2;durP2;ratioP2
63965;SDS011;50151;52.030;5.350;2024-01-07T00:01:28;11.65;;;8.20;;
63965;SDS011;50151;52.030;5.350;2024-01-07T00:03:55;10.80;;;7.88;;
63965;SDS011;50151;52.030;5.350;2024-01-07T00:06:21;10.52;;;7.13;;
63965;SDS011;50151;52.030;5.350;2024-01-07T00:08:48;10.43;;;7.00;;
63965;SDS011;50151;52.030;5.350;2024-01-07T00:11:15;12.02;;;7.90;;
63965;SDS011;50151;52.030;5.350;2024-01-07T00:13:42;12.35;;;8.70;;
63965;SDS011;50151;52.030;5.350;2024-01-07T00:16:09;12.52;;;7.93;;
63965;SDS011;50151;52.030;5.350;2024-01-07T00:18:35;11.15;;;8.32;;
63965;SDS011;50151;52.030;5.350;2024-01-07T00:21:03;12.18;;;7.57;;
63965;SDS011;50151;52.030;5.350;2024-01-07T00:23:30;13.70;;;9.13;;
63965;SDS011;50151;52.030;5.350;2024-01-07T00:25:57;13.23;;;9.00;;
63965;SDS011;50151;52.030;5.350;2024-01-07T00:28:24;14.27;;;9.57;;
63965;SDS011;50151;52.030;5.350;2024-01-07T00:30:50;13.80;;;8.73;;
63965;SDS011;50151;52.030;5.350;2024-01-07T00:33:17;14.48;;;9.85;;
63965;SDS011;50151;52.030;5.350;2024-01-07T00:35:44;15.02;;;9.20;;
63965;SDS011;50151;52.030;5.350;2024-01-07T00:38:11;16.15;;;9.63;;
63965;SDS011;50151;52.030;5.350;2024-01-07T00:40:38;14.80;;;9.73;;
63965;SDS011;50151;52.030;5.350;2024-01-07T00:43:04;14.70;;;9.77;;
63965;SDS011;50151;52.030;5.350;2024-01-07T00:45:31;15.68;;;9.30;;
63965;SDS011;50151;52.030;5.350;2024-01-07T00:47:58;14.07;;;8.93;;
63965;SDS011;50151;52.030;5.350;2024-01-07T00:50:25;15.65;;;9.40;;
63965;SDS011;50151;52.030;5.350;2024-01-07T00:52:52;14.93;;;9.40;;
63965;SDS011;50151;52.030;5.350;2024-01-07T00:55:18;15.20;;;8.80;;
63965;SDS011;50151;52.030;5.350;2024-01-07T00:57:45;13.27;;;8.73;;
63965;SDS011;50151;52.030;5.350;2024-01-07T01:00:12;11.63;;;8.27;;
63965;SDS011;50151;52.030;5.350;2024-01-07T01:02:39;12.88;;;8.00;;
63965;SDS011;50151;52.030;5.350;2024-01-07T01:05:06;13.13;;;8.57;;
63965;SDS011;50151;52.030;5.350;2024-01-07T01:07:33;11.65;;;8.15;;
63965;SDS011;50151;52.030;5.350;2024-01-07T01:10:00;11.70;;;8.15;;
63965;SDS011;50151;52.030;5.350;2024-01-07T01:12:27;13.13;;;9.18;;
63965;SDS011;50151;52.030;5.350;2024-01-07T01:14:54;15.32;;;8.85;;
63965;SDS011;50151;52.030;5.350;2024-01-07T01:17:21;13.02;;;8.65;;
63965;SDS011;50151;52.030;5.350;2024-01-07T01:19:48;13.88;;;8.35;;
63965;SDS011;50151;52.030;5.350;2024-01-07T01:22:15;10.68;;;7.05;;
63965;SDS011;50151;52.030;5.350;2024-01-07T01:24:41;13.73;;;8.30;;
63965;SDS011;50151;52.030;5.350;2024-01-07T01:27:12;11.02;;;6.68;;
63965;SDS011;50151;52.030;5.350;2024-01-07T01:29:40;7.97;;;5.50;;
63965;SDS011;50151;52.030;5.350;2024-01-07T01:32:07;13.88;;;8.77;;
63965;SDS011;50151;52.030;5.350;2024-01-07T01:34:33;11.43;;;7.35;;
63965;SDS011;50151;52.030;5.350;2024-01-07T01:37:00;15.43;;;9.07;;
63965;SDS011;50151;52.030;5.350;2024-01-07T01:39:28;14.95;;;9.10;;
63965;SDS011;50151;52.030;5.350;2024-01-07T01:41:55;13.95;;;8.68;;
63965;SDS011;50151;52.030;5.350;2024-01-07T01:44:24;14.93;;;9.05;;
63965;SDS011;50151;52.030;5.350;2024-01-07T01:46:53;12.27;;;7.63;;
63965;SDS011;50151;52.030;5.350;2024-01-07T01:49:21;17.40;;;9.85;;
63965;SDS011;50151;52.030;5.350;2024-01-07T01:51:48;13.98;;;9.15;;
63965;SDS011;50151;52.030;5.350;2024-01-07T01:54:16;14.65;;;9.15;;
63965;SDS011;50151;52.030;5.350;2024-01-07T01:56:43;14.25;;;8.98;;
63965;SDS011;50151;52.030;5.350;2024-01-07T01:59:11;15.73;;;10.35;;
63965;SDS011;50151;52.030;5.350;2024-01-07T02:01:38;15.65;;;9.50;;
63965;SDS011;50151;52.030;5.350;2024-01-07T02:04:06;16.33;;;10.05;;
63965;SDS011;50151;52.030;5.350;2024-01-07T02:06:33;16.65;;;10.13;;
63965;SDS011;50151;52.030;5.350;2024-01-07T02:09:00;13.65;;;8.35;;
63965;SDS011;50151;52.030;5.350;2024-01-07T02:11:27;15.02;;;9.90;;
63965;SDS011;50151;52.030;5.350;2024-01-07T02:13:54;19.00;;;10.07;;
63965;SDS011;50151;52.030;5.350;2024-01-07T02:16:21;16.33;;;9.93;;
63965;SDS011;50151;52.030;5.350;2024-01-07T02:18:47;14.20;;;9.75;;
63965;SDS011;50151;52.030;5.350;2024-01-07T02:21:14;17.98;;;10.10;;
63965;SDS011;50151;52.030;5.350;2024-01-07T02:23:41;16.15;;;10.40;;
63965;SDS011;50151;52.030;5.350;2024-01-07T02:26:08;19.65;;;11.93;;
63965;SDS011;50151;52.030;5.350;2024-01-07T02:28:35;17.15;;;9.43;;
63965;SDS011;50151;52.030;5.350;2024-01-07T02:31:01;18.98;;;10.93;;
63965;SDS011;50151;52.030;5.350;2024-01-07T02:33:28;13.82;;;9.40;;
63965;SDS011;50151;52.030;5.350;2024-01-07T02:35:57;17.88;;;10.75;;
63965;SDS011;50151;52.030;5.350;2024-01-07T02:38:23;18.33;;;11.55;;
63965;SDS011;50151;52.030;5.350;2024-01-07T02:40:50;14.57;;;9.25;;
63965;SDS011;50151;52.030;5.350;2024-01-07T02:43:17;16.23;;;10.85;;
63965;SDS011;50151;52.030;5.350;2024-01-07T02:45:43;19.92;;;10.63;;
63965;SDS011;50151;52.030;5.350;2024-01-07T02:48:10;17.08;;;11.40;;
63965;SDS011;50151;52.030;5.350;2024-01-07T02:50:37;15.35;;;9.82;;
63965;SDS011;50151;52.030;5.350;2024-01-07T02:53:03;17.20;;;10.88;;
63965;SDS011;50151;52.030;5.350;2024-01-07T02:55:30;17.35;;;11.18;;
63965;SDS011;50151;52.030;5.350;2024-01-07T02:57:57;15.93;;;10.68;;
63965;SDS011;50151;52.030;5.350;2024-01-07T03:00:24;17.23;;;10.70;;
63965;SDS011;50151;52.030;5.350;2024-01-07T03:02:51;12.95;;;7.78;;
63965;SDS011;50151;52.030;5.350;2024-01-07T03:05:19;17.35;;;10.98;;
63965;SDS011;50151;52.030;5.350;2024-01-07T03:07:46;19.77;;;11.57;;
63965;SDS011;50151;52.030;5.350;2024-01-07T03:10:12;16.05;;;10.05;;
63965;SDS011;50151;52.030;5.350;2024-01-07T03:12:39;21.90;;;11.60;;
63965;SDS011;50151;52.030;5.350;2024-01-07T03:15:06;18.95;;;10.75;;
63965;SDS011;50151;52.030;5.350;2024-01-07T03:17:34;21.13;;;11.90;;
63965;SDS011;50151;52.030;5.350;2024-01-07T03:20:02;18.35;;;11.05;;
63965;SDS011;50151;52.030;5.350;2024-01-07T03:22:29;19.85;;;11.23;;
63965;SDS011;50151;52.030;5.350;2024-01-07T03:24:55;19.08;;;11.20;;
63965;SDS011;50151;52.030;5.350;2024-01-07T03:27:22;19.33;;;11.90;;
63965;SDS011;50151;52.030;5.350;2024-01-07T03:29:49;17.08;;;10.50;;
63965;SDS011;50151;52.030;5.350;2024-01-07T03:32:16;12.40;;;8.00;;
63965;SDS011;50151;52.030;5.350;2024-01-07T03:34:43;20.67;;;11.90;;
63965;SDS011;50151;52.030;5.350;2024-01-07T03:37:09;17.88;;;11.15;;
63965;SDS011;50151;52.030;5.350;2024-01-07T03:39:36;18.92;;;11.52;;
63965;SDS011;50151;52.030;5.350;2024-01-07T03:42:03;19.23;;;12.15;;
63965;SDS011;50151;52.030;5.350;2024-01-07T03:44:32;19.55;;;11.68;;
63965;SDS011;50151;52.030;5.350;2024-01-07T03:46:58;14.50;;;8.57;;
63965;SDS011;50151;52.030;5.350;2024-01-07T03:49:25;21.52;;;13.18;;
63965;SDS011;50151;52.030;5.350;2024-01-07T03:51:52;18.17;;;11.25;;
63965;SDS011;50151;52.030;5.350;2024-01-07T03:54:18;19.48;;;10.98;;
63965;SDS011;50151;52.030;5.350;2024-01-07T03:56:45;19.48;;;12.30;;
63965;SDS011;50151;52.030;5.350;2024-01-07T03:59:12;18.40;;;11.02;;
63965;SDS011;50151;52.030;5.350;2024-01-07T04:01:38;17.88;;;10.95;;
63965;SDS011;50151;52.030;5.350;2024-01-07T04:04:05;16.50;;;10.90;;
63965;SDS011;50151;52.030;5.350;2024-01-07T04:06:32;20.50;;;11.15;;
63965;SDS011;50151;52.030;5.350;2024-01-07T04:08:59;17.73;;;10.98;;
63965;SDS011;50151;52.030;5.350;2024-01-07T04:11:26;19.25;;;11.30;;
63965;SDS011;50151;52.030;5.350;2024-01-07T04:13:53;18.95;;;11.50;;
63965;SDS011;50151;52.030;5.350;2024-01-07T04:16:20;19.30;;;11.27;;
63965;SDS011;50151;52.030;5.350;2024-01-07T04:18:46;20.35;;;11.63;;
63965;SDS011;50151;52.030;5.350;2024-01-07T04:21:19;17.90;;;11.85;;
63965;SDS011;50151;52.030;5.350;2024-01-07T04:23:46;19.35;;;10.98;;
63965;SDS011;50151;52.030;5.350;2024-01-07T04:26:13;21.48;;;11.88;;
63965;SDS011;50151;52.030;5.350;2024-01-07T04:28:42;22.27;;;11.23;;
63965;SDS011;50151;52.030;5.350;2024-01-07T04:31:09;20.58;;;11.80;;
63965;SDS011;50151;52.030;5.350;2024-01-07T04:33:37;17.58;;;11.68;;
63965;SDS011;50151;52.030;5.350;2024-01-07T04:36:03;19.73;;;12.90;;
63965;SDS011;50151;52.030;5.350;2024-01-07T04:38:31;22.27;;;12.32;;
63965;SDS011;50151;52.030;5.350;2024-01-07T04:40:58;20.45;;;11.77;;
63965;SDS011;50151;52.030;5.350;2024-01-07T04:43:25;21.98;;;12.10;;
63965;SDS011;50151;52.030;5.350;2024-01-07T04:45:51;22.60;;;11.95;;
63965;SDS011;50151;52.030;5.350;2024-01-07T04:48:18;18.27;;;11.30;;
63965;SDS011;50151;52.030;5.350;2024-01-07T04:50:45;20.08;;;11.15;;
63965;SDS011;50151;52.030;5.350;2024-01-07T04:53:12;20.10;;;11.63;;
63965;SDS011;50151;52.030;5.350;2024-01-07T04:55:39;17.80;;;11.75;;
63965;SDS011;50151;52.030;5.350;2024-01-07T04:58:05;21.08;;;12.98;;
63965;SDS011;50151;52.030;5.350;2024-01-07T05:00:32;18.75;;;11.15;;
63965;SDS011;50151;52.030;5.350;2024-01-07T05:02:59;19.52;;;11.82;;
63965;SDS011;50151;52.030;5.350;2024-01-07T05:05:26;19.55;;;10.85;;
63965;SDS011;50151;52.030;5.350;2024-01-07T05:07:53;18.15;;;10.82;;
63965;SDS011;50151;52.030;5.350;2024-01-07T05:10:19;12.88;;;8.07;;
63965;SDS011;50151;52.030;5.350;2024-01-07T05:12:46;18.67;;;10.95;;
63965;SDS011;50151;52.030;5.350;2024-01-07T05:15:13;22.17;;;10.88;;
63965;SDS011;50151;52.030;5.350;2024-01-07T05:17:39;14.00;;;8.90;;
63965;SDS011;50151;52.030;5.350;2024-01-07T05:20:07;15.32;;;10.98;;
63965;SDS011;50151;52.030;5.350;2024-01-07T05:22:35;18.73;;;10.20;;
63965;SDS011;50151;52.030;5.350;2024-01-07T05:25:02;15.52;;;9.75;;
63965;SDS011;50151;52.030;5.350;2024-01-07T05:27:28;14.52;;;9.75;;
63965;SDS011;50151;52.030;5.350;2024-01-07T05:29:55;16.00;;;9.35;;
63965;SDS011;50151;52.030;5.350;2024-01-07T05:32:22;16.73;;;11.23;;
63965;SDS011;50151;52.030;5.350;2024-01-07T05:34:49;17.80;;;10.77;;
63965;SDS011;50151;52.030;5.350;2024-01-07T05:37:16;15.88;;;10.27;;
63965;SDS011;50151;52.030;5.350;2024-01-07T05:39:43;14.25;;;9.50;;
63965;SDS011;50151;52.030;5.350;2024-01-07T05:42:10;15.45;;;8.82;;
63965;SDS011;50151;52.030;5.350;2024-01-07T05:44:37;17.67;;;9.80;;
63965;SDS011;50151;52.030;5.350;2024-01-07T05:47:04;16.67;;;10.48;;
63965;SDS011;50151;52.030;5.350;2024-01-07T05:49:30;16.13;;;10.68;;
63965;SDS011;50151;52.030;5.350;2024-01-07T05:51:57;13.55;;;8.57;;
63965;SDS011;50151;52.030;5.350;2024-01-07T05:54:24;18.38;;;9.27;;
63965;SDS011;50151;52.030;5.350;2024-01-07T05:56:53;13.95;;;9.30;;
63965;SDS011;50151;52.030;5.350;2024-01-07T05:59:19;15.38;;;9.38;;
63965;SDS011;50151;52.030;5.350;2024-01-07T06:01:46;13.75;;;9.63;;
63965;SDS011;50151;52.030;5.350;2024-01-07T06:04:13;15.60;;;8.65;;
63965;SDS011;50151;52.030;5.350;2024-01-07T06:06:40;14.80;;;9.32;;
63965;SDS011;50151;52.030;5.350;2024-01-07T06:09:07;12.60;;;8.23;;
63965;SDS011;50151;52.030;5.350;2024-01-07T06:11:33;12.13;;;7.90;;
63965;SDS011;50151;52.030;5.350;2024-01-07T06:14:00;11.93;;;8.25;;
63965;SDS011;50151;52.030;5.350;2024-01-07T06:16:27;15.57;;;9.00;;
63965;SDS011;50151;52.030;5.350;2024-01-07T06:18:54;14.70;;;8.68;;
63965;SDS011;50151;52.030;5.350;2024-01-07T06:21:20;13.13;;;7.95;;
63965;SDS011;50151;52.030;5.350;2024-01-07T06:23:48;13.02;;;8.73;;
63965;SDS011;50151;52.030;5.350;2024-01-07T06:26:15;11.48;;;8.38;;
63965;SDS011;50151;52.030;5.350;2024-01-07T06:28:42;8.18;;;5.60;;
63965;SDS011;50151;52.030;5.350;2024-01-07T06:31:08;12.65;;;9.13;;
63965;SDS011;50151;52.030;5.350;2024-01-07T06:33:35;12.13;;;8.27;;
63965;SDS011;50151;52.030;5.350;2024-01-07T06:36:02;13.07;;;8.40;;
63965;SDS011;50151;52.030;5.350;2024-01-07T06:38:30;13.35;;;8.50;;
63965;SDS011;50151;52.030;5.350;2024-01-07T06:40:57;13.80;;;8.45;;
63965;SDS011;50151;52.030;5.350;2024-01-07T06:43:27;12.85;;;8.02;;
63965;SDS011;50151;52.030;5.350;2024-01-07T06:45:54;14.23;;;8.50;;
63965;SDS011;50151;52.030;5.350;2024-01-07T06:48:21;13.27;;;8.68;;
63965;SDS011;50151;52.030;5.350;2024-01-07T06:50:48;16.55;;;8.90;;
63965;SDS011;50151;52.030;5.350;2024-01-07T06:53:14;12.15;;;8.10;;
63965;SDS011;50151;52.030;5.350;2024-01-07T06:55:42;12.40;;;8.40;;
63965;SDS011;50151;52.030;5.350;2024-01-07T06:58:09;14.48;;;9.45;;
63965;SDS011;50151;52.030;5.350;2024-01-07T07:00:36;13.73;;;7.40;;
63965;SDS011;50151;52.030;5.350;2024-01-07T07:03:03;11.98;;;8.05;;
63965;SDS011;50151;52.030;5.350;2024-01-07T07:05:31;9.57;;;6.70;;
63965;SDS011;50151;52.030;5.350;2024-01-07T07:07:58;12.15;;;8.15;;
63965;SDS011;50151;52.030;5.350;2024-01-07T07:10:25;13.57;;;8.00;;
63965;SDS011;50151;52.030;5.350;2024-01-07T07:12:52;12.13;;;7.55;;
63965;SDS011;50151;52.030;5.350;2024-01-07T07:15:19;11.77;;;8.63;;
63965;SDS011;50151;52.030;5.350;2024-01-07T07:17:45;13.10;;;8.20;;
63965;SDS011;50151;52.030;5.350;2024-01-07T07:20:13;12.00;;;8.13;;
63965;SDS011;50151;52.030;5.350;2024-01-07T07:22:39;13.10;;;8.77;;
63965;SDS011;50151;52.030;5.350;2024-01-07T07:25:06;11.60;;;7.95;;
63965;SDS011;50151;52.030;5.350;2024-01-07T07:27:33;13.63;;;8.10;;
63965;SDS011;50151;52.030;5.350;2024-01-07T07:30:00;12.00;;;7.68;;
63965;SDS011;50151;52.030;5.350;2024-01-07T07:32:27;13.85;;;7.63;;
63965;SDS011;50151;52.030;5.350;2024-01-07T07:34:54;7.57;;;5.03;;
63965;SDS011;50151;52.030;5.350;2024-01-07T07:37:20;11.40;;;8.23;;
63965;SDS011;50151;52.030;5.350;2024-01-07T07:39:47;13.32;;;7.93;;
63965;SDS011;50151;52.030;5.350;2024-01-07T07:42:15;12.90;;;8.38;;
63965;SDS011;50151;52.030;5.350;2024-01-07T07:44:42;11.45;;;7.90;;
63965;SDS011;50151;52.030;5.350;2024-01-07T07:47:09;7.95;;;4.90;;
63965;SDS011;50151;52.030;5.350;2024-01-07T07:49:38;12.27;;;8.50;;
63965;SDS011;50151;52.030;5.350;2024-01-07T07:52:07;13.35;;;8.90;;
63965;SDS011;50151;52.030;5.350;2024-01-07T07:54:36;12.25;;;8.20;;
63965;SDS011;50151;52.030;5.350;2024-01-07T07:57:04;13.52;;;8.23;;
63965;SDS011;50151;52.030;5.350;2024-01-07T07:59:30;11.80;;;8.30;;
63965;SDS011;50151;52.030;5.350;2024-01-07T08:01:57;12.13;;;8.50;;
63965;SDS011;50151;52.030;5.350;2024-01-07T08:04:26;11.48;;;8.02;;
63965;SDS011;50151;52.030;5.350;2024-01-07T08:06:53;12.70;;;7.88;;
63965;SDS011;50151;52.030;5.350;2024-01-07T08:09:22;12.40;;;8.43;;
63965;SDS011;50151;52.030;5.350;2024-01-07T08:11:51;10.57;;;7.95;;
63965;SDS011;50151;52.030;5.350;2024-01-07T08:14:17;12.90;;;8.10;;
63965;SDS011;50151;52.030;5.350;2024-01-07T08:16:44;13.52;;;8.00;;
63965;SDS011;50151;52.030;5.350;2024-01-07T08:19:11;11.93;;;8.23;;
63965;SDS011;50151;52.030;5.350;2024-01-07T08:21:38;15.05;;;8.30;;
63965;SDS011;50151;52.030;5.350;2024-01-07T08:24:05;11.70;;;7.80;;
63965;SDS011;50151;52.030;5.350;2024-01-07T08:26:32;12.80;;;8.00;;
63965;SDS011;50151;52.030;5.350;2024-01-07T08:28:59;5.95;;;3.85;;
63965;SDS011;50151;52.030;5.350;2024-01-07T08:31:26;13.20;;;8.35;;
63965;SDS011;50151;52.030;5.350;2024-01-07T08:33:53;10.02;;;5.57;;
63965;SDS011;50151;52.030;5.350;2024-01-07T08:36:19;13.15;;;8.63;;
63965;SDS011;50151;52.030;5.350;2024-01-07T08:38:46;10.30;;;7.20;;
63965;SDS011;50151;52.030;5.350;2024-01-07T08:41:16;12.68;;;6.93;;
63965;SDS011;50151;52.030;5.350;2024-01-07T08:43:43;8.68;;;5.93;;
63965;SDS011;50151;52.030;5.350;2024-01-07T08:46:11;8.95;;;6.63;;
63965;SDS011;50151;52.030;5.350;2024-01-07T08:48:40;10.68;;;6.93;;
63965;SDS011;50151;52.030;5.350;2024-01-07T08:51:06;9.80;;;5.65;;
63965;SDS011;50151;52.030;5.350;2024-01-07T08:53:33;10.07;;;6.00;;
63965;SDS011;50151;52.030;5.350;2024-01-07T08:56:00;7.70;;;5.05;;
63965;SDS011;50151;52.030;5.350;2024-01-07T08:58:27;8.15;;;6.35;;
63965;SDS011;50151;52.030;5.350;2024-01-07T09:00:53;8.75;;;5.45;;
63965;SDS011;50151;52.030;5.350;2024-01-07T09:03:20;8.63;;;5.85;;
63965;SDS011;50151;52.030;5.350;2024-01-07T09:05:47;8.73;;;6.18;;
63965;SDS011;50151;52.030;5.350;2024-01-07T09:08:14;8.82;;;6.15;;
63965;SDS011;50151;52.030;5.350;2024-01-07T09:10:41;8.45;;;6.05;;
63965;SDS011;50151;52.030;5.350;2024-01-07T09:13:10;11.60;;;6.60;;
63965;SDS011;50151;52.030;5.350;2024-01-07T09:15:37;6.50;;;4.60;;
63965;SDS011;50151;52.030;5.350;2024-01-07T09:18:03;10.68;;;6.60;;
63965;SDS011;50151;52.030;5.350;2024-01-07T09:20:31;10.07;;;6.43;;
63965;SDS011;50151;52.030;5.350;2024-01-07T09:22:57;9.95;;;5.90;;
63965;SDS011;50151;52.030;5.350;2024-01-07T09:25:24;7.78;;;4.35;;
63965;SDS011;50151;52.030;5.350;2024-01-07T09:27:52;10.27;;;6.43;;
63965;SDS011;50151;52.030;5.350;2024-01-07T09:30:19;7.03;;;4.28;;
63965;SDS011;50151;52.030;5.350;2024-01-07T09:32:45;10.30;;;6.55;;
63965;SDS011;50151;52.030;5.350;2024-01-07T09:35:12;7.13;;;5.22;;
63965;SDS011;50151;52.030;5.350;2024-01-07T09:37:39;11.13;;;5.97;;
63965;SDS011;50151;52.030;5.350;2024-01-07T09:40:05;9.35;;;5.78;;
63965;SDS011;50151;52.030;5.350;2024-01-07T09:42:33;9.98;;;6.00;;
63965;SDS011;50151;52.030;5.350;2024-01-07T09:45:01;10.80;;;5.53;;
63965;SDS011;50151;52.030;5.350;2024-01-07T09:47:32;9.15;;;5.95;;
63965;SDS011;50151;52.030;5.350;2024-01-07T09:49:59;10.00;;;5.65;;
63965;SDS011;50151;52.030;5.350;2024-01-07T09:52:25;9.40;;;5.00;;
63965;SDS011;50151;52.030;5.350;2024-01-07T09:54:54;10.48;;;6.32;;
63965;SDS011;50151;52.030;5.350;2024-01-07T09:57:25;9.48;;;5.45;;
63965;SDS011;50151;52.030;5.350;2024-01-07T09:59:52;10.02;;;6.13;;
63965;SDS011;50151;52.030;5.350;2024-01-07T10:02:19;12.93;;;6.55;;
63965;SDS011;50151;52.030;5.350;2024-01-07T10:04:47;10.75;;;5.82;;
63965;SDS011;50151;52.030;5.350;2024-01-07T10:07:15;11.40;;;6.40;;
63965;SDS011;50151;52.030;5.350;2024-01-07T10:09:42;9.85;;;5.20;;
63965;SDS011;50151;52.030;5.350;2024-01-07T10:12:09;8.40;;;5.15;;
63965;SDS011;50151;52.030;5.350;2024-01-07T10:14:38;8.75;;;4.40;;
63965;SDS011;50151;52.030;5.350;2024-01-07T10:17:13;12.10;;;6.60;;
63965;SDS011;50151;52.030;5.350;2024-01-07T10:19:43;8.90;;;5.75;;
63965;SDS011;50151;52.030;5.350;2024-01-07T10:22:12;11.55;;;5.90;;
63965;SDS011;50151;52.030;5.350;2024-01-07T10:24:40;9.98;;;6.45;;
63965;SDS011;50151;52.030;5.350;2024-01-07T10:27:08;5.60;;;3.80;;
63965;SDS011;50151;52.030;5.350;2024-01-07T10:29:40;10.02;;;5.75;;
63965;SDS011;50151;52.030;5.350;2024-01-07T10:32:06;9.05;;;4.60;;
63965;SDS011;50151;52.030;5.350;2024-01-07T10:34:34;6.10;;;3.42;;
63965;SDS011;50151;52.030;5.350;2024-01-07T10:37:03;8.50;;;5.00;;
63965;SDS011;50151;52.030;5.350;2024-01-07T10:39:31;8.60;;;4.72;;
63965;SDS011;50151;52.030;5.350;2024-01-07T10:41:58;6.22;;;3.95;;
63965;SDS011;50151;52.030;5.350;2024-01-07T10:44:27;5.07;;;3.55;;
63965;SDS011;50151;52.030;5.350;2024-01-07T10:46:55;6.90;;;4.07;;
63965;SDS011;50151;52.030;5.350;2024-01-07T10:49:23;8.07;;;4.38;;
63965;SDS011;50151;52.030;5.350;2024-01-07T10:51:56;6.07;;;4.38;;
63965;SDS011;50151;52.030;5.350;2024-01-07T10:54:29;5.88;;;4.05;;
63965;SDS011;50151;52.030;5.350;2024-01-07T10:56:58;7.30;;;4.00;;
63965;SDS011;50151;52.030;5.350;2024-01-07T10:59:26;5.82;;;3.15;;
63965;SDS011;50151;52.030;5.350;2024-01-07T11:01:54;4.60;;;3.22;;
63965;SDS011;50151;52.030;5.350;2024-01-07T11:04:30;6.40;;;4.13;;
63965;SDS011;50151;52.030;5.350;2024-01-07T11:07:12;4.93;;;3.35;;
63965;SDS011;50151;52.030;5.350;2024-01-07T11:10:24;4.72;;;3.15;;
63965;SDS011;50151;52.030;5.350;2024-01-07T11:13:07;5.55;;;3.03;;
63965;SDS011;50151;52.030;5.350;2024-01-07T11:18:19;5.30;;;3.33;;
63965;SDS011;50151;52.030;5.350;2024-01-07T11:20:47;4.45;;;3.17;;
63965;SDS011;50151;52.030;5.350;2024-01-07T11:23:33;4.10;;;3.10;;
63965;SDS011;50151;52.030;5.350;2024-01-07T11:26:04;5.97;;;2.50;;
63965;SDS011;50151;52.030;5.350;2024-01-07T11:31:21;5.78;;;3.55;;
63965;SDS011;50151;52.030;5.350;2024-01-07T11:34:08;5.78;;;3.33;;
63965;SDS011;50151;52.030;5.350;2024-01-07T11:36:35;3.92;;;2.67;;
63965;SDS011;50151;52.030;5.350;2024-01-07T11:39:03;4.53;;;3.38;;
63965;SDS011;50151;52.030;5.350;2024-01-07T11:41:35;5.40;;;2.92;;
63965;SDS011;50151;52.030;5.350;2024-01-07T11:44:05;4.68;;;2.55;;
63965;SDS011;50151;52.030;5.350;2024-01-07T11:46:37;6.38;;;2.78;;
63965;SDS011;50151;52.030;5.350;2024-01-07T11:49:03;3.00;;;2.03;;
63965;SDS011;50151;52.030;5.350;2024-01-07T11:51:31;5.88;;;3.28;;
63965;SDS011;50151;52.030;5.350;2024-01-07T11:53:59;2.90;;;2.17;;
63965;SDS011;50151;52.030;5.350;2024-01-07T11:56:30;4.90;;;2.75;;
63965;SDS011;50151;52.030;5.350;2024-01-07T11:58:57;4.63;;;2.30;;
63965;SDS011;50151;52.030;5.350;2024-01-07T12:01:24;3.65;;;2.22;;
63965;SDS011;50151;52.030;5.350;2024-01-07T12:03:53;3.95;;;2.22;;
63965;SDS011;50151;52.030;5.350;2024-01-07T12:06:20;3.92;;;1.90;;
63965;SDS011;50151;52.030;5.350;2024-01-07T12:08:46;3.53;;;1.73;;
63965;SDS011;50151;52.030;5.350;2024-01-07T12:11:14;1.92;;;1.40;;
63965;SDS011;50151;52.030;5.350;2024-01-07T12:13:41;4.13;;;1.75;;
63965;SDS011;50151;52.030;5.350;2024-01-07T12:16:09;2.13;;;1.63;;
63965;SDS011;50151;52.030;5.350;2024-01-07T12:18:40;4.45;;;1.90;;
63965;SDS011;50151;52.030;5.350;2024-01-07T12:21:07;3.38;;;1.73;;
63965;SDS011;50151;52.030;5.350;2024-01-07T12:23:35;3.95;;;2.33;;
63965;SDS011;50151;52.030;5.350;2024-01-07T12:26:08;2.40;;;1.42;;
63965;SDS011;50151;52.030;5.350;2024-01-07T12:28:36;2.17;;;1.65;;
63965;SDS011;50151;52.030;5.350;2024-01-07T12:31:04;2.35;;;1.50;;
63965;SDS011;50151;52.030;5.350;2024-01-07T12:33:32;4.22;;;2.20;;
63965;SDS011;50151;52.030;5.350;2024-01-07T12:36:00;3.25;;;2.03;;
63965;SDS011;50151;52.030;5.350;2024-01-07T12:38:28;3.20;;;1.67;;
63965;SDS011;50151;52.030;5.350;2024-01-07T12:40:55;3.83;;;2.20;;
63965;SDS011;50151;52.030;5.350;2024-01-07T12:43:22;2.78;;;1.73;;
63965;SDS011;50151;52.030;5.350;2024-01-07T12:45:50;3.90;;;1.90;;
63965;SDS011;50151;52.030;5.350;2024-01-07T12:48:17;3.63;;;1.50;;
63965;SDS011;50151;52.030;5.350;2024-01-07T12:50:44;2.45;;;1.23;;
63965;SDS011;50151;52.030;5.350;2024-01-07T12:53:10;4.85;;;1.70;;
63965;SDS011;50151;52.030;5.350;2024-01-07T12:55:37;4.60;;;2.25;;
63965;SDS011;50151;52.030;5.350;2024-01-07T12:58:04;2.92;;;1.70;;
63965;SDS011;50151;52.030;5.350;2024-01-07T13:00:31;2.47;;;1.73;;
63965;SDS011;50151;52.030;5.350;2024-01-07T13:02:59;2.47;;;1.38;;
63965;SDS011;50151;52.030;5.350;2024-01-07T13:05:27;1.40;;;1.30;;
63965;SDS011;50151;52.030;5.350;2024-01-07T13:07:54;3.33;;;1.77;;
63965;SDS011;50151;52.030;5.350;2024-01-07T13:10:21;2.30;;;1.33;;
63965;SDS011;50151;52.030;5.350;2024-01-07T13:12:48;3.35;;;1.63;;
63965;SDS011;50151;52.030;5.350;2024-01-07T13:15:20;2.75;;;1.70;;
63965;SDS011;50151;52.030;5.350;2024-01-07T13:17:49;1.73;;;1.30;;
63965;SDS011;50151;52.030;5.350;2024-01-07T13:20:15;2.25;;;1.55;;
63965;SDS011;50151;52.030;5.350;2024-01-07T13:22:46;3.10;;;1.80;;
63965;SDS011;50151;52.030;5.350;2024-01-07T13:25:13;5.60;;;1.77;;
63965;SDS011;50151;52.030;5.350;2024-01-07T13:27:40;2.42;;;1.65;;
63965;SDS011;50151;52.030;5.350;2024-01-07T13:30:08;3.05;;;1.58;;
63965;SDS011;50151;52.030;5.350;2024-01-07T13:32:36;4.60;;;2.10;;
63965;SDS011;50151;52.030;5.350;2024-01-07T13:35:04;4.32;;;1.67;;
63965;SDS011;50151;52.030;5.350;2024-01-07T13:37:31;2.50;;;1.27;;
63965;SDS011;50151;52.030;5.350;2024-01-07T13:39:58;2.88;;;1.48;;
63965;SDS011;50151;52.030;5.350;2024-01-07T13:42:27;2.65;;;1.10;;
63965;SDS011;50151;52.030;5.350;2024-01-07T13:44:54;2.90;;;1.42;;
63965;SDS011;50151;52.030;5.350;2024-01-07T13:47:21;1.30;;;1.15;;
63965;SDS011;50151;52.030;5.350;2024-01-07T13:49:48;4.95;;;1.88;;
63965;SDS011;50151;52.030;5.350;2024-01-07T13:52:15;2.55;;;1.08;;
63965;SDS011;50151;52.030;5.350;2024-01-07T13:54:42;2.50;;;1.40;;
63965;SDS011;50151;52.030;5.350;2024-01-07T13:57:09;2.55;;;1.50;;
63965;SDS011;50151;52.030;5.350;2024-01-07T13:59:36;2.60;;;1.30;;
63965;SDS011;50151;52.030;5.350;2024-01-07T14:02:03;2.65;;;1.58;;
63965;SDS011;50151;52.030;5.350;2024-01-07T14:04:31;4.72;;;1.20;;
63965;SDS011;50151;52.030;5.350;2024-01-07T14:06:58;2.45;;;1.35;;
63965;SDS011;50151;52.030;5.350;2024-01-07T14:09:25;2.35;;;1.50;;
63965;SDS011;50151;52.030;5.350;2024-01-07T14:11:53;2.88;;;1.30;;
63965;SDS011;50151;52.030;5.350;2024-01-07T14:14:20;1.67;;;1.13;;
63965;SDS011;50151;52.030;5.350;2024-01-07T14:16:46;1.48;;;1.17;;
63965;SDS011;50151;52.030;5.350;2024-01-07T14:19:13;3.35;;;1.30;;
63965;SDS011;50151;52.030;5.350;2024-01-07T14:21:43;2.38;;;1.25;;
63965;SDS011;50151;52.030;5.350;2024-01-07T14:24:11;1.95;;;1.25;;
63965;SDS011;50151;52.030;5.350;2024-01-07T14:26:37;2.60;;;1.50;;
63965;SDS011;50151;52.030;5.350;2024-01-07T14:29:04;2.20;;;1.08;;
63965;SDS011;50151;52.030;5.350;2024-01-07T14:31:43;3.05;;;1.35;;
63965;SDS011;50151;52.030;5.350;2024-01-07T14:34:12;1.75;;;1.13;;
63965;SDS011;50151;52.030;5.350;2024-01-07T14:36:39;3.10;;;1.40;;
63965;SDS011;50151;52.030;5.350;2024-01-07T14:39:08;2.72;;;1.70;;
63965;SDS011;50151;52.030;5.350;2024-01-07T14:41:36;5.50;;;1.45;;
63965;SDS011;50151;52.030;5.350;2024-01-07T14:44:03;1.10;;;0.98;;